Kezdőlap
METAR-TAF:

METAR-TAF

Repülőterek :

Gaborone, Botswana

földrajzi szélesség: 24-13S, földrajzi hosszúság: 025-55E, magasság: 1005 m

Jelenlegi meteorológiai megfigyelések

A jelentés 23 perccel ezelõtt készült, 06:00 UTC
Kelet-délkeleti szél 4 kt, kelet-északkeleti és déli között változik
Hőmérséklet 15°C
Páratartalom 39%
Légköri nyomás 1023 hPa
Látótávolság 10 km, vagy több
felhőtlen 1500 m magasságban, és nincs gomolyfelhõ

METAR: FBSK 160600Z 12004KT 070V170 CAVOK 15/01 Q1023 NOSIG

Idő: 08:23 (06:23 UTC)

Előrejelzés

A jelentés 2 órával és 23 perccel ezelõtt készült, 04:00 UTC
Az előrejelzés 16-én 06 óra UTC és 17-én 12 óra UTC között érvényes
Északi szél 7 kt
Látótávolság 10 km, vagy több
felhőtlen 1500 m magasságban, és nincs gomolyfelhõ

TAF: FBSK 160400Z 1606/1712 36007KT CAVOK

Meteorológiai megfigyelések és előrejelzések több, mint 4000 repülőtéren (METAR és TAF jelentéseket).

A térképen piros és sárga pontok jelzik az elérhető meteorológiai állomásokat.

Mozgassa az egeret a pont fölött, hogy megjelenjen az állomás neve.

Azután kattintson az időjárási megfigyelések és előrejelzések megtekintéséhez.

A térkép megváltoztatása: kattintson a fekete keresztel jelölt zöld gombra ráközelítéshez, a vonallal jelölt zöld gombra távolításhoz, vagy a zöld nyilakra a szomszédos térképek eléréséhez.


METAR-TAF: